Wednesday, July 23, 2014
03:49 UTC
  |  Log In   |  Register Free
Airport Search:

Owosso Community Airport
(KRNP)

Owosso Community Airport Diagram
No Airport Diagram Available

FAA data valid effective May 29, 2014 until July 24, 2014 (unless otherwise noted).

 
 
 
 
 
 
 
 
 
 
 
 
 
 

Current Aviation Weather for Owosso Community Airport (KRNP)

The most recent METAR observation for KRNP was updated at: 0234 UTC
METAR Summary (Translated METAR)
KRNP
230234Z AUTO 20005KT 10SM BKN039 OVC049 27/20 A2992 RMK AO2 T02670200
KFNT
(17.4 nm SE from KRNP)
230153Z 21006KT 8SM OVC045 28/19 A2993 RMK AO2 SLP126 T02830194
TAF Summary (Translated TAF)
KFNT
(17.4 nm SE from KRNP)
221728Z 2218/2318 21012G20KT P6SM SCT200 FM230100 24009KT P6SM SCT060 SCT100 BKN200 PROB30 2303/2306 TSRA BKN035 OVC060CB FM230900 32012KT P6SM OVC020 FM231600 35010KT P6SM OVC040
KLAN
(23.5 nm SW from KRNP)
221746Z 2218/2318 21011G21KT P6SM SCT060 FM222300 23011G21KT 6SM HZ VCTS BKN060CB FM230500 27011KT 4SM BR BKN050 FM230700 33010G20KT P6SM SCT015 BKN035 FM231500 35011G21KT P6SM BKN040
  Airport Weather Conditions for KRNP

 Current Weather at RNP
80° F
Overcast
North winds at 0.0 mph
RNP NOAA Radar

Pressure: 29.93 in
Humidity: 68%
Wind: Calm
Dew Point: 68.2°F
Visibility: 10.00 mi


Airport Weather Forecast for KRNP

Translated METAR and TAF for KRNP
Translated METAR for KRNP (0343 UTC 23 July 2014)
found at http://aviationweather.gov/adds/metars/
 
METAR text: KRNP 230334Z AUTO 20004KT 10SM OVC034 26/20 A2992 RMK AO2 T02630201
Conditions at: KRNP (OWOSSO , MI, US) observed 0334 UTC 23 July 2014
Temperature: 26.3°C (79°F)
Dewpoint: 20.1°C (68°F) [RH = 69%]
Pressure (altimeter): 29.92 inches Hg (1013.3 mb)
Winds: from the SSW (200 degrees) at 5 MPH (4 knots; 2.1 m/s)
Visibility: 10 or more miles (16+ km)
Ceiling: 3400 feet AGL
Clouds: overcast cloud deck at 3400 feet AGL
Weather: automated observation with no human augmentation;
there may or may not be significant weather present at this time
Translated TAF for KRNP

There is no translated TAF available for this airport

Find All Airport Services Find A Hotel Find A Rental Car Find A Golf Course Find A Restaurant $100 Hamburger



FBO's on the Field
FBO Company Facility Photos Services Transportation Aviation Fuel Prices: Prices include tax
Catering Weather Repair Courtesy Rental Type 100LL JetA JetA+ MOGAS 8087
 
Owosso Community Airport

This FBO has not yet been rated
FS:Avfuel
Last Updated: Jul-09
Login to update fuel prices
SS:
Contact Owosso Community AirportMore FBO Information
 
Add another FBO Facility Photos Catering Weather Repair Courtesy Rental Type 100LL JetA JetA+ MOGAS 8087
Services Transportation Aviation Fuel Prices: Prices include tax


GlobalAir.com Airport Resource Center model-print
model-print
model-print
model-print